メインページ
METAR-TAF:

METAR-TAF

空港 :

ラゴス, ナイジェリア

ムルタラ・モハンマド国際空港

緯度: 06-35N, 経度: 003-20E, 海抜: 40m

現時点の気象観測

当レポートは28分前の03:00(UTC)に作成
変向風 2kt
気温 26°C
湿度 89%
気圧 1012 hPa
視程: 7000m

METAR: DNMM 170300Z VRB02KT 7000 NSC 26/24 Q1012 NOSIG

時間: 04:28 (03:28 UTC)

予報

当レポートは5時間58分前の21:30(UTC)に作成
予報は17日の 00時(UTC)から 18日の 06時(UTC)まで有効
変向風 2kt
視程: 7000m
17日の 05時(UTC)から 17日の 08時(UTC)まで一時的に
視程: 3000m
確率 30%
17日の 06時(UTC)から 17日の 07時(UTC)まで
視程: 1500m
煙霧

TAF: DNMM 162130Z 1700/1806 VRB02KT 7000 NSC TEMPO 1705/1708 3000 BR PROB30 1706/1707 1500 HZ

4,000以上の空港の気象観測と天気予報(METAR報とTAF報)

利用可能な観測所は地図上に黄色い丸と赤い丸で示す。

丸の上にカーソルを重ねると観測所名を参照できる。

次にクリックすると気象観測と天気予報を参照できる。

マップの切り替え:黒色「×」印の緑ボタンをクリックして拡大、「-」印の緑ボタンをクリックして縮小、緑色の三角印をクリックして隣りの地図に切り替え


METAR-TAF: